createdAt,value
2023-05-16T00:00:59.634Z,55.89
2023-05-16T00:01:59.673Z,55.26
2023-05-16T00:02:59.689Z,54.85
2023-05-16T00:03:59.710Z,57.05
2023-05-16T00:04:59.597Z,56.13
2023-05-16T00:05:59.622Z,54.53
2023-05-16T00:06:59.618Z,54.62
2023-05-16T00:07:59.577Z,54.61
2023-05-16T00:08:59.573Z,55.47
2023-05-16T00:09:59.574Z,54.57
2023-05-16T00:10:59.616Z,54.58
2023-05-16T00:11:59.571Z,55.03
2023-05-16T00:12:59.545Z,55.17
2023-05-16T00:13:59.555Z,56.14
2023-05-16T00:14:59.538Z,56.29
2023-05-16T00:15:59.568Z,49.56
2023-05-16T00:16:59.603Z,55.43
2023-05-16T00:17:59.636Z,48.25
2023-05-16T00:18:59.553Z,42.39
2023-05-16T00:19:59.519Z,42.46
2023-05-16T00:20:59.509Z,47.68
2023-05-16T00:21:59.476Z,38.97
2023-05-16T00:22:59.468Z,39.14
2023-05-16T00:23:59.464Z,46.92
2023-05-16T00:24:59.478Z,45.08
2023-05-16T00:25:59.470Z,45.43
2023-05-16T00:26:59.442Z,42.26
2023-05-16T00:27:59.430Z,46.79
2023-05-16T00:28:59.427Z,43.10
2023-05-16T00:29:59.444Z,43.41
2023-05-16T00:30:59.401Z,44.80
2023-05-16T00:31:59.449Z,39.10
2023-05-16T00:32:59.427Z,38.57
2023-05-16T00:33:59.506Z,38.76
2023-05-16T00:34:59.402Z,40.64
2023-05-16T00:35:59.373Z,49.09
2023-05-16T00:36:59.367Z,42.10
2023-05-16T00:37:59.354Z,50.82
2023-05-16T00:38:59.366Z,55.43
2023-05-16T00:39:59.340Z,56.44
2023-05-16T00:40:59.331Z,52.55
2023-05-16T00:41:59.315Z,50.98
2023-05-16T00:42:59.308Z,50.74
2023-05-16T00:43:59.320Z,51.98
2023-05-16T00:44:59.290Z,43.67
2023-05-16T00:45:59.319Z,45.60
2023-05-16T00:46:59.302Z,50.42
2023-05-16T00:47:59.513Z,47.29
2023-05-16T00:48:59.291Z,44.55
2023-05-16T00:49:59.262Z,39.93
2023-05-16T00:50:59.246Z,39.48
2023-05-16T00:51:59.234Z,39.60
2023-05-16T00:52:59.259Z,45.23
2023-05-16T00:53:59.222Z,43.53
2023-05-16T00:54:59.234Z,52.76
2023-05-16T00:55:59.230Z,53.20
2023-05-16T00:56:59.195Z,52.57
2023-05-16T00:57:59.219Z,52.41
2023-05-16T00:58:59.185Z,55.09
2023-05-16T00:59:59.181Z,51.41
2023-05-16T01:00:59.216Z,44.93
2023-05-16T01:01:59.243Z,40.61
2023-05-16T01:02:59.339Z,44.62
2023-05-16T01:03:59.254Z,44.54
2023-05-16T01:04:59.136Z,40.75
2023-05-16T01:05:59.120Z,47.34
2023-05-16T01:06:59.142Z,41.30
2023-05-16T01:07:59.152Z,43.42
2023-05-16T01:08:59.103Z,48.05
2023-05-16T01:09:59.113Z,55.07
2023-05-16T01:10:59.100Z,46.90
2023-05-16T01:11:59.103Z,47.59
2023-05-16T01:12:59.075Z,47.96
2023-05-16T01:13:59.076Z,56.35
2023-05-16T01:14:59.062Z,55.25
2023-05-16T01:15:59.098Z,62.45
2023-05-16T01:16:59.070Z,55.80
2023-05-16T01:17:59.139Z,55.62
2023-05-16T01:18:59.065Z,55.67
2023-05-16T01:19:59.020Z,56.02
2023-05-16T01:20:59.011Z,56.48
2023-05-16T01:21:59.025Z,56.10
2023-05-16T01:22:58.993Z,56.28
2023-05-16T01:23:58.985Z,58.49
2023-05-16T01:24:58.976Z,58.21
2023-05-16T01:25:59.010Z,54.86
2023-05-16T01:26:58.984Z,55.41
2023-05-16T01:27:58.954Z,55.00
2023-05-16T01:28:58.948Z,55.27
2023-05-16T01:29:58.949Z,55.80
2023-05-16T01:30:59.026Z,59.22
2023-05-16T01:31:59.001Z,55.76
2023-05-16T01:32:58.970Z,55.24
2023-05-16T01:33:58.905Z,55.40
2023-05-16T01:34:58.899Z,53.09
2023-05-16T01:35:58.936Z,50.19
2023-05-16T01:36:58.914Z,40.19
2023-05-16T01:37:58.896Z,40.68
2023-05-16T01:38:58.869Z,42.80
2023-05-16T01:39:58.892Z,49.09
2023-05-16T01:40:58.889Z,49.24
2023-05-16T01:41:58.860Z,42.73
2023-05-16T01:42:58.842Z,47.80
2023-05-16T01:43:58.826Z,50.44
2023-05-16T01:44:58.856Z,46.62
2023-05-16T01:45:59.733Z,49.95
2023-05-16T01:46:58.885Z,47.84
2023-05-16T01:47:58.988Z,46.78
2023-05-16T01:48:58.863Z,42.49
2023-05-16T01:49:58.816Z,48.35
2023-05-16T01:50:58.776Z,50.25
2023-05-16T01:51:58.770Z,46.94
2023-05-16T01:52:58.772Z,46.67
2023-05-16T01:53:58.788Z,45.27
2023-05-16T01:54:58.774Z,47.52
2023-05-16T01:55:58.735Z,57.18
2023-05-16T01:56:58.756Z,50.50
2023-05-16T01:57:58.731Z,53.94
2023-05-16T01:58:58.767Z,41.14
2023-05-16T01:59:58.722Z,43.85
2023-05-16T02:00:58.791Z,49.57
2023-05-16T02:01:58.697Z,45.42
2023-05-16T02:02:58.717Z,49.32
2023-05-16T02:03:58.756Z,52.67
2023-05-16T02:04:58.680Z,44.97
2023-05-16T02:05:58.669Z,49.26
2023-05-16T02:06:58.667Z,44.52
2023-05-16T02:07:58.697Z,46.98
2023-05-16T02:08:58.649Z,39.20
2023-05-16T02:09:58.689Z,41.94
2023-05-16T02:10:58.668Z,49.96
2023-05-16T02:11:58.638Z,51.41
2023-05-16T02:12:58.630Z,43.14
2023-05-16T02:13:58.606Z,44.04
2023-05-16T02:14:58.618Z,43.99
2023-05-16T02:15:58.607Z,38.94
2023-05-16T02:16:58.626Z,39.47
2023-05-16T02:17:58.630Z,45.31
2023-05-16T02:18:58.662Z,47.16
2023-05-16T02:19:58.600Z,50.12
2023-05-16T02:20:58.555Z,51.10
2023-05-16T02:21:58.546Z,52.13
2023-05-16T02:22:58.542Z,52.15
2023-05-16T02:23:58.580Z,46.32
2023-05-16T02:24:58.546Z,53.99
2023-05-16T02:25:58.512Z,47.28
2023-05-16T02:26:58.508Z,43.21
2023-05-16T02:27:58.495Z,44.23
2023-05-16T02:28:58.537Z,46.66
2023-05-16T02:29:58.480Z,46.54
2023-05-16T02:30:58.496Z,44.76
2023-05-16T02:31:58.481Z,51.40
2023-05-16T02:32:58.511Z,56.16
2023-05-16T02:33:58.475Z,55.23
2023-05-16T02:34:58.450Z,57.18
2023-05-16T02:35:58.439Z,57.27
2023-05-16T02:36:58.428Z,56.99
2023-05-16T02:37:58.457Z,55.87
2023-05-16T02:38:58.444Z,57.13
2023-05-16T02:39:58.421Z,60.01
2023-05-16T02:40:58.427Z,59.04
2023-05-16T02:41:58.393Z,57.11
2023-05-16T02:42:58.417Z,56.58
2023-05-16T02:43:58.404Z,56.31
2023-05-16T02:44:58.371Z,56.16
2023-05-16T02:45:58.384Z,63.17
2023-05-16T02:46:58.356Z,56.80
2023-05-16T02:47:58.422Z,56.24
2023-05-16T02:48:58.338Z,61.72
2023-05-16T02:49:58.369Z,58.31
2023-05-16T02:50:58.318Z,58.45
2023-05-16T02:51:58.315Z,57.10
2023-05-16T02:52:58.331Z,59.88
2023-05-16T02:53:58.299Z,54.90
2023-05-16T02:55:15.995Z,56.18
2023-05-16T02:56:00.283Z,57.24
2023-05-16T02:56:58.299Z,51.97
2023-05-16T02:57:58.295Z,51.47
2023-05-16T02:58:58.265Z,50.29
2023-05-16T02:59:58.262Z,52.18
2023-05-16T03:00:58.251Z,58.51
2023-05-16T03:01:58.354Z,53.36
2023-05-16T03:02:58.380Z,54.37
2023-05-16T03:03:58.283Z,54.24
2023-05-16T03:04:58.216Z,51.76
2023-05-16T03:05:58.206Z,50.54
2023-05-16T03:06:58.235Z,54.15
2023-05-16T03:07:58.198Z,57.10
2023-05-16T03:08:58.185Z,53.51
2023-05-16T03:09:58.177Z,55.32
2023-05-16T03:10:58.167Z,51.96
2023-05-16T03:11:58.196Z,53.26
2023-05-16T03:12:58.184Z,52.42
2023-05-16T03:13:59.656Z,54.15
2023-05-16T03:14:58.145Z,53.44
2023-05-16T03:15:58.184Z,50.23
2023-05-16T03:16:58.156Z,48.67
2023-05-16T03:17:58.183Z,52.33
2023-05-16T03:18:58.197Z,48.72
2023-05-16T03:19:58.207Z,50.10
2023-05-16T03:20:58.127Z,55.83
2023-05-16T03:21:58.089Z,55.05
2023-05-16T03:22:58.087Z,50.72
2023-05-16T03:23:58.129Z,56.11
2023-05-16T03:24:58.071Z,52.63
2023-05-16T03:25:58.087Z,51.22
2023-05-16T03:26:58.088Z,53.13
2023-05-16T03:27:58.052Z,53.37
2023-05-16T03:28:58.057Z,54.74
2023-05-16T03:29:58.054Z,56.87
2023-05-16T03:30:58.044Z,54.10
2023-05-16T03:31:58.078Z,51.96
2023-05-16T03:32:58.016Z,54.05
2023-05-16T03:33:57.996Z,55.20
2023-05-16T03:34:58.008Z,57.54
2023-05-16T03:35:58.004Z,57.86
2023-05-16T03:36:57.973Z,57.02
2023-05-16T03:37:57.962Z,58.78
2023-05-16T03:38:57.973Z,56.19
2023-05-16T03:39:57.986Z,55.64
2023-05-16T03:40:57.958Z,57.53
2023-05-16T03:41:57.946Z,58.00
2023-05-16T03:42:57.954Z,59.51
2023-05-16T03:43:57.922Z,58.83
2023-05-16T03:44:57.931Z,57.36
2023-05-16T03:45:57.938Z,56.17
2023-05-16T03:46:58.890Z,54.91
2023-05-16T03:47:57.935Z,58.29
2023-05-16T03:48:57.901Z,60.32
2023-05-16T03:49:57.892Z,55.04
2023-05-16T03:50:57.858Z,56.76
2023-05-16T03:51:57.853Z,57.18
2023-05-16T03:52:58.874Z,57.11
2023-05-16T03:53:57.865Z,57.99
2023-05-16T03:54:57.839Z,57.12
2023-05-16T03:55:57.829Z,58.85
2023-05-16T03:56:57.819Z,57.76
2023-05-16T03:57:57.811Z,55.94
2023-05-16T03:58:57.850Z,58.43
2023-05-16T03:59:57.797Z,58.06
2023-05-16T04:00:57.789Z,61.38
2023-05-16T04:01:57.830Z,59.13
2023-05-16T04:02:57.832Z,57.18
2023-05-16T04:03:57.793Z,57.76
2023-05-16T04:04:57.756Z,59.65
2023-05-16T04:05:57.782Z,57.56
2023-05-16T04:06:57.737Z,56.19
2023-05-16T04:07:57.780Z,55.61
2023-05-16T04:08:57.755Z,58.32
2023-05-16T04:09:57.713Z,58.42
2023-05-16T04:10:57.719Z,56.93
2023-05-16T04:11:57.711Z,54.87
2023-05-16T04:12:57.715Z,54.84
2023-05-16T04:13:57.720Z,56.37
2023-05-16T04:14:57.689Z,57.25
2023-05-16T04:15:57.671Z,53.64
2023-05-16T04:16:57.713Z,56.69
2023-05-16T04:17:57.730Z,58.57
2023-05-16T04:18:57.652Z,55.67
2023-05-16T04:19:57.726Z,55.76
2023-05-16T04:20:58.023Z,58.85
2023-05-16T04:21:57.621Z,56.23
2023-05-16T04:22:57.646Z,55.08
2023-05-16T04:23:57.671Z,57.11
2023-05-16T04:24:57.601Z,59.80
2023-05-16T04:25:57.588Z,57.80
2023-05-16T04:26:57.637Z,56.75
2023-05-16T04:27:57.640Z,57.66
2023-05-16T04:28:57.595Z,60.44
2023-05-16T04:29:57.564Z,57.13
2023-05-16T04:30:57.558Z,56.89
2023-05-16T04:31:57.721Z,57.76
2023-05-16T04:32:57.635Z,57.87
2023-05-16T04:33:57.539Z,58.71
2023-05-16T04:34:57.528Z,55.80
2023-05-16T04:35:57.602Z,56.44
2023-05-16T04:36:57.596Z,56.40
2023-05-16T04:37:57.567Z,55.62
2023-05-16T04:38:57.511Z,57.29
2023-05-16T04:39:57.536Z,56.09
2023-05-16T04:40:57.518Z,54.15
2023-05-16T04:41:57.501Z,57.75
2023-05-16T04:42:57.466Z,61.46
2023-05-16T04:43:57.465Z,58.90
2023-05-16T04:44:57.451Z,57.16
2023-05-16T04:45:57.512Z,60.30
2023-05-16T04:46:57.665Z,58.09
2023-05-16T04:47:57.445Z,57.62
2023-05-16T04:48:57.418Z,61.35
2023-05-16T04:49:57.465Z,57.19
2023-05-16T04:50:57.457Z,59.49
2023-05-16T04:51:57.414Z,58.70
2023-05-16T04:52:57.393Z,59.74
2023-05-16T04:53:57.398Z,60.99
2023-05-16T04:54:57.417Z,59.22
2023-05-16T04:55:57.419Z,59.77
2023-05-16T04:56:57.370Z,61.82
2023-05-16T04:57:58.351Z,57.02
2023-05-16T04:58:57.348Z,61.07
2023-05-16T04:59:57.357Z,59.99
2023-05-16T05:00:57.349Z,60.24
2023-05-16T05:01:57.344Z,60.82
2023-05-16T05:02:57.323Z,59.46
2023-05-16T05:03:57.311Z,60.00
2023-05-16T05:04:57.345Z,59.23
2023-05-16T05:05:57.335Z,57.65
2023-05-16T05:06:57.283Z,59.59
2023-05-16T05:07:57.272Z,60.13
2023-05-16T05:08:57.268Z,60.81
2023-05-16T05:09:57.303Z,60.41
2023-05-16T05:10:57.244Z,60.09
2023-05-16T05:11:57.250Z,60.77
2023-05-16T05:12:57.228Z,61.61
2023-05-16T05:13:57.240Z,60.43
2023-05-16T05:14:57.243Z,58.80
2023-05-16T05:15:57.208Z,60.49
2023-05-16T05:16:57.232Z,59.79
2023-05-16T05:17:57.330Z,59.49
2023-05-16T05:18:57.310Z,63.09
2023-05-16T05:19:57.186Z,60.91
2023-05-16T05:20:57.179Z,61.32
2023-05-16T05:21:57.165Z,60.20
2023-05-16T05:22:57.174Z,63.06
2023-05-16T05:23:57.174Z,60.47
2023-05-16T05:24:57.141Z,60.46
2023-05-16T05:25:57.141Z,59.31
2023-05-16T05:26:58.123Z,60.18
2023-05-16T05:27:57.143Z,59.35
2023-05-16T05:29:04.499Z,59.85
2023-05-16T05:29:59.099Z,60.23
2023-05-16T05:30:57.097Z,59.35
2023-05-16T05:31:57.131Z,60.41
2023-05-16T05:32:57.176Z,61.11
2023-05-16T05:33:57.073Z,59.01
2023-05-16T05:34:57.059Z,58.96
2023-05-16T05:35:57.055Z,59.37
2023-05-16T05:36:57.042Z,57.55
2023-05-16T05:37:57.065Z,58.82
2023-05-16T05:38:57.049Z,59.72
2023-05-16T05:39:57.020Z,59.46
2023-05-16T05:40:57.030Z,59.15
2023-05-16T05:41:57.033Z,62.49
2023-05-16T05:42:57.018Z,59.37
2023-05-16T05:43:56.999Z,59.26
2023-05-16T05:44:56.997Z,61.06
2023-05-16T05:45:57.098Z,61.38
2023-05-16T05:46:57.029Z,60.16
2023-05-16T05:47:58.251Z,59.05
2023-05-16T05:49:29.818Z,59.35
2023-05-16T05:49:56.943Z,61.02
2023-05-16T05:50:56.935Z,59.90
2023-05-16T05:51:57.009Z,60.14
2023-05-16T05:52:56.918Z,59.57
2023-05-16T05:53:56.911Z,59.37
2023-05-16T05:54:56.903Z,59.85
2023-05-16T05:55:56.903Z,62.49
2023-05-16T05:56:56.927Z,59.67
2023-05-16T05:57:56.883Z,60.35
2023-05-16T05:58:56.875Z,60.09
2023-05-16T05:59:56.865Z,59.58
2023-05-16T06:00:56.892Z,60.06
2023-05-16T06:01:57.123Z,59.61
2023-05-16T06:02:56.969Z,58.62
2023-05-16T06:03:56.842Z,59.01
2023-05-16T06:04:56.872Z,53.48
2023-05-16T06:05:56.995Z,54.21
2023-05-16T06:06:56.845Z,62.07
2023-05-16T06:07:56.807Z,56.46
2023-05-16T06:08:56.800Z,55.75
2023-05-16T06:09:56.799Z,55.31
2023-05-16T06:10:56.814Z,57.03
2023-05-16T06:11:56.833Z,57.18
2023-05-16T06:12:56.762Z,56.53
2023-05-16T06:13:56.747Z,57.85
2023-05-16T06:14:57.752Z,58.26
2023-05-16T06:15:56.770Z,54.93
2023-05-16T06:16:56.797Z,57.21
2023-05-16T06:17:56.785Z,57.23
2023-05-16T06:18:56.757Z,56.54
2023-05-16T06:19:56.742Z,56.79
2023-05-16T06:20:56.745Z,57.22
2023-05-16T06:21:56.693Z,57.85
2023-05-16T06:22:56.685Z,56.17
2023-05-16T06:23:56.682Z,59.72
2023-05-16T06:24:56.695Z,58.85
2023-05-16T06:25:56.669Z,58.99
2023-05-16T06:26:56.656Z,59.02
2023-05-16T06:27:56.648Z,59.45
2023-05-16T06:28:56.649Z,55.92
2023-05-16T06:29:56.651Z,57.77
2023-05-16T06:30:56.668Z,55.52
2023-05-16T06:31:56.783Z,58.16
2023-05-16T06:32:56.654Z,57.40
2023-05-16T06:33:56.660Z,58.68
2023-05-16T06:34:56.621Z,56.80
2023-05-16T06:35:56.589Z,57.69
2023-05-16T06:36:56.573Z,53.48
2023-05-16T06:37:56.568Z,57.64
2023-05-16T06:38:56.641Z,54.94
2023-05-16T06:39:56.547Z,55.75
2023-05-16T06:40:56.548Z,57.45
2023-05-16T06:41:56.850Z,55.58
2023-05-16T06:42:57.538Z,58.74
2023-05-16T06:43:56.642Z,58.60
2023-05-16T06:44:56.568Z,57.60
2023-05-16T06:45:56.577Z,61.80
2023-05-16T06:46:56.542Z,58.33
2023-05-16T06:47:57.362Z,60.45
2023-05-16T06:48:57.511Z,58.39
2023-05-16T06:49:56.491Z,58.89
2023-05-16T06:50:57.469Z,56.42
2023-05-16T06:51:56.476Z,59.53
2023-05-16T06:52:56.513Z,62.94
2023-05-16T06:53:56.451Z,61.96
2023-05-16T06:54:56.445Z,57.77
2023-05-16T06:55:57.334Z,57.93
2023-05-16T06:56:56.424Z,57.78
2023-05-16T06:57:56.464Z,59.57
2023-05-16T06:58:56.408Z,59.06
2023-05-16T06:59:56.433Z,56.60
2023-05-16T07:00:56.512Z,58.88
2023-05-16T07:01:56.437Z,57.71
2023-05-16T07:02:56.575Z,56.00
2023-05-16T07:03:56.613Z,54.52
2023-05-16T07:04:56.360Z,56.64
2023-05-16T07:05:56.352Z,55.48
2023-05-16T07:06:56.368Z,59.07
2023-05-16T07:07:56.338Z,56.55
2023-05-16T07:08:56.334Z,59.24
2023-05-16T07:09:56.344Z,57.89
2023-05-16T07:10:56.316Z,59.48
2023-05-16T07:11:56.341Z,58.04
2023-05-16T07:12:56.302Z,56.60
2023-05-16T07:13:56.294Z,55.16
2023-05-16T07:14:56.282Z,56.72
2023-05-16T07:15:56.320Z,57.80
2023-05-16T07:16:56.355Z,56.68
2023-05-16T07:17:56.281Z,61.56
2023-05-16T07:18:56.272Z,58.51
2023-05-16T07:19:56.281Z,56.95
2023-05-16T07:20:56.280Z,54.18
2023-05-16T07:21:57.227Z,55.90
2023-05-16T07:22:56.226Z,60.60
2023-05-16T07:23:56.219Z,55.98
2023-05-16T07:24:56.202Z,57.64
2023-05-16T07:25:56.247Z,61.48
2023-05-16T07:26:56.192Z,60.85
2023-05-16T07:27:56.175Z,57.19
2023-05-16T07:28:56.173Z,55.50
2023-05-16T07:29:56.186Z,60.54
2023-05-16T07:30:56.175Z,60.12
2023-05-16T07:31:56.228Z,56.27
2023-05-16T07:32:56.177Z,57.35
2023-05-16T07:33:56.133Z,54.30
2023-05-16T07:34:56.152Z,55.97
2023-05-16T07:36:07.791Z,59.13
2023-05-16T07:36:58.110Z,58.32
2023-05-16T07:37:56.102Z,58.46
2023-05-16T07:38:56.109Z,57.61
2023-05-16T07:39:56.114Z,59.98
2023-05-16T07:40:56.074Z,56.92
2023-05-16T07:41:56.084Z,56.82
2023-05-16T07:42:56.090Z,55.95
2023-05-16T07:43:56.048Z,60.26
2023-05-16T07:44:56.076Z,60.37
2023-05-16T07:45:56.041Z,59.30
2023-05-16T07:46:56.058Z,57.44
2023-05-16T07:47:56.084Z,57.46
2023-05-16T07:48:56.061Z,59.96
2023-05-16T07:49:57.029Z,61.56
2023-05-16T07:50:56.009Z,58.46
2023-05-16T07:51:56.021Z,54.98
2023-05-16T07:52:55.998Z,59.65
2023-05-16T07:53:55.994Z,58.71
2023-05-16T07:54:55.968Z,58.57
2023-05-16T07:55:55.955Z,56.55
2023-05-16T07:56:56.104Z,63.18
2023-05-16T07:57:55.932Z,58.14
2023-05-16T07:58:55.985Z,57.29
2023-05-16T07:59:55.922Z,56.29
2023-05-16T08:00:55.922Z,58.59
2023-05-16T08:01:55.906Z,57.48
2023-05-16T08:02:55.987Z,59.77
2023-05-16T08:03:55.957Z,60.67
2023-05-16T08:04:55.926Z,60.79
2023-05-16T08:05:55.911Z,61.70
2023-05-16T08:06:55.868Z,62.40
2023-05-16T08:07:55.882Z,61.82
2023-05-16T08:08:55.877Z,62.00
2023-05-16T08:09:55.843Z,61.57
2023-05-16T08:10:55.833Z,63.46
2023-05-16T08:11:55.831Z,61.43
2023-05-16T08:12:55.825Z,60.85
2023-05-16T08:13:55.864Z,61.64
2023-05-16T08:14:55.805Z,63.85
2023-05-16T08:15:55.812Z,61.66
2023-05-16T08:16:55.809Z,61.64
2023-05-16T08:17:55.888Z,60.70
2023-05-16T08:18:55.849Z,58.88
2023-05-16T08:19:55.775Z,62.45
2023-05-16T08:20:55.760Z,58.62
2023-05-16T08:21:55.757Z,56.20
2023-05-16T08:22:55.764Z,55.92
2023-05-16T08:23:55.753Z,55.83
2023-05-16T08:24:55.735Z,58.14
2023-05-16T08:25:55.723Z,58.25
2023-05-16T08:26:55.736Z,53.35
2023-05-16T08:27:56.474Z,55.75
2023-05-16T08:28:55.707Z,58.47
2023-05-16T08:29:55.716Z,58.36
2023-05-16T08:30:55.732Z,62.68
2023-05-16T08:31:55.749Z,62.01
2023-05-16T08:32:55.717Z,58.52
2023-05-16T08:33:55.661Z,58.42
2023-05-16T08:34:55.660Z,59.35
2023-05-16T08:35:55.637Z,58.54
2023-05-16T08:36:55.666Z,58.43
2023-05-16T08:37:55.636Z,56.79
2023-05-16T08:38:56.278Z,56.80
2023-05-16T08:39:55.629Z,59.38
2023-05-16T08:40:55.703Z,55.20
2023-05-16T08:41:55.631Z,57.18
2023-05-16T08:42:55.588Z,57.15
2023-05-16T08:43:55.574Z,57.47
2023-05-16T08:44:55.570Z,56.66
2023-05-16T08:45:55.606Z,59.09
2023-05-16T08:46:55.703Z,56.76
2023-05-16T08:47:55.595Z,55.09
2023-05-16T08:48:55.534Z,57.46
2023-05-16T08:49:55.539Z,60.29
2023-05-16T08:50:55.555Z,57.80
2023-05-16T08:51:55.534Z,54.56
2023-05-16T08:52:55.539Z,57.49
2023-05-16T08:53:55.511Z,56.40
2023-05-16T08:55:09.381Z,60.81
2023-05-16T08:55:57.561Z,58.91
2023-05-16T08:56:55.480Z,56.89
2023-05-16T08:57:55.465Z,58.19
2023-05-16T08:58:56.480Z,63.15
2023-05-16T08:59:56.870Z,56.33
2023-05-16T09:00:55.580Z,57.02
2023-05-16T09:01:55.435Z,55.31
2023-05-16T09:02:55.455Z,58.40
2023-05-16T09:03:55.476Z,58.05
2023-05-16T09:04:55.475Z,60.02
2023-05-16T09:05:55.437Z,61.48
2023-05-16T09:06:55.403Z,56.27
2023-05-16T09:07:55.396Z,58.10
2023-05-16T09:08:55.409Z,55.81
2023-05-16T09:09:55.426Z,57.35
2023-05-16T09:10:55.372Z,57.45
2023-05-16T09:11:55.383Z,57.99
2023-05-16T09:12:55.362Z,56.01
2023-05-16T09:13:55.350Z,58.63
2023-05-16T09:14:55.372Z,58.57
2023-05-16T09:15:55.336Z,56.91
2023-05-16T09:16:55.384Z,57.84
2023-05-16T09:17:55.496Z,56.84
2023-05-16T09:18:55.436Z,58.87
2023-05-16T09:19:55.326Z,57.92
2023-05-16T09:20:55.301Z,58.37
2023-05-16T09:21:55.290Z,60.99
2023-05-16T09:22:55.273Z,58.21
2023-05-16T09:23:55.306Z,56.82
2023-05-16T09:24:55.260Z,55.92
2023-05-16T09:25:55.265Z,59.21
2023-05-16T09:26:55.258Z,58.58
2023-05-16T09:27:55.244Z,58.76
2023-05-16T09:28:55.262Z,56.79
2023-05-16T09:29:55.224Z,55.55
2023-05-16T09:30:55.291Z,56.34
2023-05-16T09:31:55.205Z,58.33
2023-05-16T09:32:55.260Z,54.83
2023-05-16T09:33:55.210Z,56.47
2023-05-16T09:34:55.176Z,54.55
2023-05-16T09:35:55.177Z,56.81
2023-05-16T09:36:55.164Z,56.27
2023-05-16T09:37:55.187Z,57.22
2023-05-16T09:38:55.148Z,56.85
2023-05-16T09:39:55.164Z,56.03
2023-05-16T09:40:55.137Z,56.77
2023-05-16T09:41:55.129Z,54.30
2023-05-16T09:42:55.146Z,56.38
2023-05-16T09:43:55.130Z,57.85
2023-05-16T09:44:55.109Z,59.78
2023-05-16T09:45:55.133Z,58.74
2023-05-16T09:46:55.276Z,58.79
2023-05-16T09:47:55.137Z,59.80
2023-05-16T09:48:55.083Z,54.23
2023-05-16T09:49:55.064Z,56.64
2023-05-16T09:50:55.100Z,57.83
2023-05-16T09:51:55.058Z,57.14
2023-05-16T09:52:55.063Z,56.24
2023-05-16T09:53:55.042Z,55.18
2023-05-16T09:54:55.048Z,57.73
2023-05-16T09:55:55.019Z,54.20
2023-05-16T09:56:55.003Z,57.37
2023-05-16T09:57:55.033Z,57.74
2023-05-16T09:58:54.990Z,58.84
2023-05-16T09:59:55.005Z,58.51
2023-05-16T10:00:55.879Z,57.50
2023-05-16T10:01:55.103Z,59.70
2023-05-16T10:02:55.030Z,58.04
2023-05-16T10:03:56.068Z,57.21
2023-05-16T10:04:54.959Z,57.50
2023-05-16T10:05:54.929Z,57.93
2023-05-16T10:06:54.960Z,57.37
2023-05-16T10:07:54.946Z,55.16
2023-05-16T10:08:54.912Z,55.89
2023-05-16T10:09:54.899Z,57.46
2023-05-16T10:10:54.899Z,59.27
2023-05-16T10:11:54.915Z,56.59
2023-05-16T10:12:54.874Z,55.28
2023-05-16T10:13:55.391Z,58.42
2023-05-16T10:14:54.862Z,58.06
2023-05-16T10:15:54.906Z,57.48
2023-05-16T10:16:54.915Z,55.55
2023-05-16T10:17:54.941Z,56.81
2023-05-16T10:18:54.881Z,58.54
2023-05-16T10:19:54.832Z,60.48
2023-05-16T10:20:54.808Z,60.16
2023-05-16T10:21:54.839Z,58.20
2023-05-16T10:22:54.801Z,60.20
2023-05-16T10:23:54.796Z,56.13
2023-05-16T10:24:54.788Z,57.65
2023-05-16T10:25:54.822Z,56.37
2023-05-16T10:26:54.816Z,56.80
2023-05-16T10:27:54.761Z,56.41
2023-05-16T10:28:54.811Z,57.97
2023-05-16T10:29:55.223Z,61.86
2023-05-16T10:30:54.792Z,58.98
2023-05-16T10:31:54.782Z,56.65
2023-05-16T10:32:54.756Z,54.45
2023-05-16T10:33:54.718Z,56.34
2023-05-16T10:34:54.705Z,56.58
2023-05-16T10:35:54.764Z,56.91
2023-05-16T10:36:54.706Z,58.83
2023-05-16T10:37:54.687Z,56.06
2023-05-16T10:38:54.692Z,61.29
2023-05-16T10:39:54.694Z,56.69
2023-05-16T10:40:54.683Z,55.98
2023-05-16T10:41:54.661Z,56.49
2023-05-16T10:42:54.655Z,60.55
2023-05-16T10:43:54.638Z,59.09
2023-05-16T10:45:05.103Z,54.14
2023-05-16T10:45:56.671Z,57.02
2023-05-16T10:46:54.609Z,58.52
2023-05-16T10:47:54.676Z,58.92
2023-05-16T10:48:55.957Z,62.58
2023-05-16T10:49:55.613Z,64.17
2023-05-16T10:50:54.586Z,58.25
2023-05-16T10:51:54.586Z,58.92
2023-05-16T10:52:54.568Z,60.87
2023-05-16T10:53:54.681Z,56.24
2023-05-16T10:54:54.573Z,55.26
2023-05-16T10:55:54.543Z,56.12
2023-05-16T10:56:54.530Z,59.76
2023-05-16T10:57:54.528Z,63.96
2023-05-16T10:58:54.683Z,61.18
2023-05-16T10:59:56.063Z,61.38
2023-05-16T11:00:54.550Z,58.97
2023-05-16T11:01:54.565Z,57.72
2023-05-16T11:02:54.605Z,59.92
2023-05-16T11:03:54.519Z,59.18
2023-05-16T11:04:54.470Z,59.69
2023-05-16T11:05:54.462Z,59.21
2023-05-16T11:06:54.471Z,59.45
2023-05-16T11:07:54.464Z,56.26
2023-05-16T11:08:54.469Z,62.70
2023-05-16T11:09:54.427Z,64.50
2023-05-16T11:10:54.421Z,59.67
2023-05-16T11:11:54.422Z,58.81
2023-05-16T11:12:54.430Z,58.37
2023-05-16T11:13:54.409Z,56.77
2023-05-16T11:14:54.409Z,56.83
2023-05-16T11:15:54.410Z,57.43
2023-05-16T11:16:54.481Z,58.75
2023-05-16T11:17:54.405Z,58.11
2023-05-16T11:18:54.384Z,59.61
2023-05-16T11:19:54.458Z,57.87
2023-05-16T11:20:54.353Z,57.06
2023-05-16T11:21:54.342Z,55.63
2023-05-16T11:22:54.360Z,62.12
2023-05-16T11:23:54.329Z,59.12
2023-05-16T11:24:54.324Z,65.41
2023-05-16T11:25:54.303Z,61.58
2023-05-16T11:26:54.341Z,65.30
2023-05-16T11:27:54.329Z,60.74
2023-05-16T11:28:54.287Z,57.16
2023-05-16T11:29:54.293Z,57.79
2023-05-16T11:30:54.372Z,58.62
2023-05-16T11:31:54.603Z,59.57
2023-05-16T11:32:54.314Z,57.94
2023-05-16T11:33:54.248Z,56.59
2023-05-16T11:34:54.239Z,57.63
2023-05-16T11:36:01.378Z,58.64
2023-05-16T11:36:56.256Z,57.33
2023-05-16T11:37:54.249Z,59.15
2023-05-16T11:38:54.203Z,60.82
2023-05-16T11:39:54.242Z,57.96
2023-05-16T11:40:54.205Z,60.31
2023-05-16T11:41:54.220Z,57.11
2023-05-16T11:42:54.177Z,59.85
2023-05-16T11:43:54.166Z,56.31
2023-05-16T11:44:54.188Z,56.80
2023-05-16T11:45:54.182Z,55.10
2023-05-16T11:46:54.245Z,57.40
2023-05-16T11:47:54.182Z,58.39
2023-05-16T11:49:26.955Z,56.56
2023-05-16T11:49:54.158Z,59.44
2023-05-16T11:50:54.183Z,58.77
2023-05-16T11:51:54.124Z,58.76
2023-05-16T11:52:55.098Z,60.49
2023-05-16T11:53:54.097Z,65.44
2023-05-16T11:54:54.115Z,55.96
2023-05-16T11:55:55.870Z,57.46
2023-05-16T11:56:55.099Z,62.49
2023-05-16T11:57:54.124Z,61.39
2023-05-16T11:58:54.064Z,59.32
2023-05-16T11:59:54.045Z,57.31
2023-05-16T12:00:54.076Z,57.50
2023-05-16T12:01:54.032Z,57.56
2023-05-16T12:02:54.154Z,57.27
2023-05-16T12:03:54.094Z,56.58
2023-05-16T12:04:54.069Z,59.30
2023-05-16T12:05:54.013Z,64.07
2023-05-16T12:06:53.986Z,59.08
2023-05-16T12:07:53.995Z,61.58
2023-05-16T12:08:53.986Z,60.15
2023-05-16T12:09:53.989Z,60.97
2023-05-16T12:10:53.976Z,57.13
2023-05-16T12:11:53.944Z,62.03
2023-05-16T12:12:53.972Z,59.34
2023-05-16T12:13:53.943Z,56.21
2023-05-16T12:14:53.946Z,59.13
2023-05-16T12:15:53.912Z,58.00
2023-05-16T12:16:53.975Z,56.77
2023-05-16T12:17:54.017Z,58.03
2023-05-16T12:18:53.915Z,58.20
2023-05-16T12:19:53.926Z,57.61
2023-05-16T12:20:53.978Z,59.69
2023-05-16T12:21:53.874Z,57.94
2023-05-16T12:22:53.875Z,60.89
2023-05-16T12:23:53.969Z,62.63
2023-05-16T12:24:53.882Z,62.81
2023-05-16T12:25:53.852Z,60.79
2023-05-16T12:26:53.826Z,59.22
2023-05-16T12:27:53.819Z,58.76
2023-05-16T12:28:53.835Z,58.40
2023-05-16T12:29:53.805Z,61.21
2023-05-16T12:30:53.792Z,58.82
2023-05-16T12:31:53.819Z,55.94
2023-05-16T12:32:53.906Z,58.08
2023-05-16T12:33:53.853Z,55.75
2023-05-16T12:34:53.768Z,55.90
2023-05-16T12:35:53.758Z,56.73
2023-05-16T12:36:53.756Z,56.32
2023-05-16T12:37:53.793Z,56.92
2023-05-16T12:38:53.796Z,57.35
2023-05-16T12:39:53.888Z,55.93
2023-05-16T12:40:53.722Z,58.82
2023-05-16T12:41:53.814Z,57.77
2023-05-16T12:42:53.761Z,60.31
2023-05-16T12:43:53.719Z,57.82
2023-05-16T12:44:53.685Z,58.51
2023-05-16T12:45:53.714Z,58.49
2023-05-16T12:46:53.756Z,61.30
2023-05-16T12:47:53.727Z,63.34
2023-05-16T12:48:53.656Z,59.79
2023-05-16T12:49:54.704Z,55.69
2023-05-16T12:50:53.643Z,55.95
2023-05-16T12:51:53.687Z,56.21
2023-05-16T12:52:54.563Z,55.49